sensor_id;sensor_type;location;lat;lon;timestamp;temperature;humidity
44863;DHT22;30597;49.628;10.850;2023-12-20T00:01:18;17.30;53.20
44863;DHT22;30597;49.628;10.850;2023-12-20T00:03:44;17.30;53.30
44863;DHT22;30597;49.628;10.850;2023-12-20T00:06:10;17.30;53.20
44863;DHT22;30597;49.628;10.850;2023-12-20T00:08:36;17.30;53.40
44863;DHT22;30597;49.628;10.850;2023-12-20T00:11:01;17.20;53.10
44863;DHT22;30597;49.628;10.850;2023-12-20T00:13:27;17.20;52.90
44863;DHT22;30597;49.628;10.850;2023-12-20T00:15:52;17.20;53.30
44863;DHT22;30597;49.628;10.850;2023-12-20T00:18:18;17.20;53.20
44863;DHT22;30597;49.628;10.850;2023-12-20T00:20:44;17.20;53.40
44863;DHT22;30597;49.628;10.850;2023-12-20T00:23:09;17.20;53.50
44863;DHT22;30597;49.628;10.850;2023-12-20T00:25:35;17.10;53.20
44863;DHT22;30597;49.628;10.850;2023-12-20T00:28:01;17.10;53.30
44863;DHT22;30597;49.628;10.850;2023-12-20T00:30:27;17.20;53.60
44863;DHT22;30597;49.628;10.850;2023-12-20T00:32:53;17.10;53.60
44863;DHT22;30597;49.628;10.850;2023-12-20T00:35:19;17.10;53.40
44863;DHT22;30597;49.628;10.850;2023-12-20T00:37:44;17.10;53.40
44863;DHT22;30597;49.628;10.850;2023-12-20T00:40:10;17.10;53.20
44863;DHT22;30597;49.628;10.850;2023-12-20T00:42:36;17.10;53.40
44863;DHT22;30597;49.628;10.850;2023-12-20T00:45:02;17.00;53.50
44863;DHT22;30597;49.628;10.850;2023-12-20T00:47:30;17.00;53.20
44863;DHT22;30597;49.628;10.850;2023-12-20T00:49:56;17.00;53.60
44863;DHT22;30597;49.628;10.850;2023-12-20T00:52:21;17.00;53.50
44863;DHT22;30597;49.628;10.850;2023-12-20T00:54:48;17.00;53.60
44863;DHT22;30597;49.628;10.850;2023-12-20T00:57:14;17.00;53.70
44863;DHT22;30597;49.628;10.850;2023-12-20T00:59:39;17.00;53.30
44863;DHT22;30597;49.628;10.850;2023-12-20T01:02:05;17.00;53.40
44863;DHT22;30597;49.628;10.850;2023-12-20T01:04:30;17.00;53.50
44863;DHT22;30597;49.628;10.850;2023-12-20T01:06:56;17.00;53.60
44863;DHT22;30597;49.628;10.850;2023-12-20T01:09:22;17.00;53.70
44863;DHT22;30597;49.628;10.850;2023-12-20T01:11:55;17.00;53.60
44863;DHT22;30597;49.628;10.850;2023-12-20T01:14:20;17.00;53.70
44863;DHT22;30597;49.628;10.850;2023-12-20T01:16:47;17.00;53.60
44863;DHT22;30597;49.628;10.850;2023-12-20T01:19:13;17.00;53.40
44863;DHT22;30597;49.628;10.850;2023-12-20T01:21:39;17.00;53.50
44863;DHT22;30597;49.628;10.850;2023-12-20T01:24:05;17.00;53.20
44863;DHT22;30597;49.628;10.850;2023-12-20T01:26:31;17.10;53.40
44863;DHT22;30597;49.628;10.850;2023-12-20T01:28:57;17.00;53.40
44863;DHT22;30597;49.628;10.850;2023-12-20T01:31:22;16.90;53.30
44863;DHT22;30597;49.628;10.850;2023-12-20T01:33:48;17.00;53.30
44863;DHT22;30597;49.628;10.850;2023-12-20T01:36:13;17.00;53.40
44863;DHT22;30597;49.628;10.850;2023-12-20T01:38:39;17.00;53.40
44863;DHT22;30597;49.628;10.850;2023-12-20T01:41:05;17.00;53.40
44863;DHT22;30597;49.628;10.850;2023-12-20T01:43:31;17.00;53.40
44863;DHT22;30597;49.628;10.850;2023-12-20T01:45:57;16.90;53.50
44863;DHT22;30597;49.628;10.850;2023-12-20T01:48:24;16.90;53.50
44863;DHT22;30597;49.628;10.850;2023-12-20T01:50:50;16.90;53.60
44863;DHT22;30597;49.628;10.850;2023-12-20T01:53:16;16.90;53.50
44863;DHT22;30597;49.628;10.850;2023-12-20T01:55:42;16.90;53.10
44863;DHT22;30597;49.628;10.850;2023-12-20T01:58:09;16.90;53.20
44863;DHT22;30597;49.628;10.850;2023-12-20T02:00:36;16.90;53.30
44863;DHT22;30597;49.628;10.850;2023-12-20T02:03:03;16.90;53.20
44863;DHT22;30597;49.628;10.850;2023-12-20T02:05:34;16.90;53.20
44863;DHT22;30597;49.628;10.850;2023-12-20T02:08:00;16.90;53.40
44863;DHT22;30597;49.628;10.850;2023-12-20T02:10:26;16.80;53.10
44863;DHT22;30597;49.628;10.850;2023-12-20T02:12:52;16.90;53.40
44863;DHT22;30597;49.628;10.850;2023-12-20T02:15:18;16.80;53.30
44863;DHT22;30597;49.628;10.850;2023-12-20T02:17:44;16.90;53.30
44863;DHT22;30597;49.628;10.850;2023-12-20T02:20:10;16.80;53.40
44863;DHT22;30597;49.628;10.850;2023-12-20T02:22:35;16.90;53.40
44863;DHT22;30597;49.628;10.850;2023-12-20T02:25:01;16.80;53.20
44863;DHT22;30597;49.628;10.850;2023-12-20T02:27:27;16.80;53.20
44863;DHT22;30597;49.628;10.850;2023-12-20T02:29:54;16.90;53.50
44863;DHT22;30597;49.628;10.850;2023-12-20T02:32:20;16.80;53.20
44863;DHT22;30597;49.628;10.850;2023-12-20T02:34:48;16.90;53.20
44863;DHT22;30597;49.628;10.850;2023-12-20T02:37:14;16.80;53.20
44863;DHT22;30597;49.628;10.850;2023-12-20T02:39:39;16.80;53.10
44863;DHT22;30597;49.628;10.850;2023-12-20T02:42:05;16.80;53.10
44863;DHT22;30597;49.628;10.850;2023-12-20T02:44:30;16.80;53.20
44863;DHT22;30597;49.628;10.850;2023-12-20T02:46:56;16.80;53.20
44863;DHT22;30597;49.628;10.850;2023-12-20T02:49:21;16.80;53.20
44863;DHT22;30597;49.628;10.850;2023-12-20T02:51:47;16.70;53.20
44863;DHT22;30597;49.628;10.850;2023-12-20T02:54:12;16.80;53.30
44863;DHT22;30597;49.628;10.850;2023-12-20T02:56:38;16.70;53.20
44863;DHT22;30597;49.628;10.850;2023-12-20T02:59:04;16.70;53.30
44863;DHT22;30597;49.628;10.850;2023-12-20T03:01:34;16.70;53.20
44863;DHT22;30597;49.628;10.850;2023-12-20T03:04:00;16.70;53.30
44863;DHT22;30597;49.628;10.850;2023-12-20T03:06:26;16.70;53.30
44863;DHT22;30597;49.628;10.850;2023-12-20T03:08:51;16.70;53.20
44863;DHT22;30597;49.628;10.850;2023-12-20T03:11:17;16.70;53.20
44863;DHT22;30597;49.628;10.850;2023-12-20T03:13:48;16.70;53.20
44863;DHT22;30597;49.628;10.850;2023-12-20T03:16:14;16.90;53.40
44863;DHT22;30597;49.628;10.850;2023-12-20T03:18:41;16.70;53.30
44863;DHT22;30597;49.628;10.850;2023-12-20T03:21:07;16.70;53.30
44863;DHT22;30597;49.628;10.850;2023-12-20T03:23:32;16.70;53.90
44863;DHT22;30597;49.628;10.850;2023-12-20T03:25:59;16.70;53.60
44863;DHT22;30597;49.628;10.850;2023-12-20T03:28:28;16.60;53.30
44863;DHT22;30597;49.628;10.850;2023-12-20T03:30:53;16.80;53.60
44863;DHT22;30597;49.628;10.850;2023-12-20T03:33:19;16.80;53.40
44863;DHT22;30597;49.628;10.850;2023-12-20T03:35:44;16.80;53.20
44863;DHT22;30597;49.628;10.850;2023-12-20T03:38:10;16.90;53.30
44863;DHT22;30597;49.628;10.850;2023-12-20T03:40:36;17.00;53.00
44863;DHT22;30597;49.628;10.850;2023-12-20T03:43:02;17.10;52.60
44863;DHT22;30597;49.628;10.850;2023-12-20T03:45:27;17.20;52.90
44863;DHT22;30597;49.628;10.850;2023-12-20T03:47:53;17.30;52.60
44863;DHT22;30597;49.628;10.850;2023-12-20T03:50:25;17.40;52.80
44863;DHT22;30597;49.628;10.850;2023-12-20T03:52:51;17.30;52.30
44863;DHT22;30597;49.628;10.850;2023-12-20T03:55:17;17.60;52.60
44863;DHT22;30597;49.628;10.850;2023-12-20T03:57:43;17.50;52.10
44863;DHT22;30597;49.628;10.850;2023-12-20T04:00:09;17.50;51.90
44863;DHT22;30597;49.628;10.850;2023-12-20T04:02:36;17.60;51.90
44863;DHT22;30597;49.628;10.850;2023-12-20T04:05:02;17.70;52.10
44863;DHT22;30597;49.628;10.850;2023-12-20T04:07:27;17.80;52.10
44863;DHT22;30597;49.628;10.850;2023-12-20T04:09:53;17.80;51.80
44863;DHT22;30597;49.628;10.850;2023-12-20T04:12:18;17.90;51.90
44863;DHT22;30597;49.628;10.850;2023-12-20T04:14:44;18.00;51.60
44863;DHT22;30597;49.628;10.850;2023-12-20T04:17:09;18.00;51.40
44863;DHT22;30597;49.628;10.850;2023-12-20T04:19:35;18.10;51.50
44863;DHT22;30597;49.628;10.850;2023-12-20T04:22:00;18.20;51.50
44863;DHT22;30597;49.628;10.850;2023-12-20T04:24:26;18.20;51.40
44863;DHT22;30597;49.628;10.850;2023-12-20T04:26:51;18.30;51.50
44863;DHT22;30597;49.628;10.850;2023-12-20T04:29:17;18.30;51.40
44863;DHT22;30597;49.628;10.850;2023-12-20T04:31:43;18.30;51.50
44863;DHT22;30597;49.628;10.850;2023-12-20T04:34:08;18.40;51.40
44863;DHT22;30597;49.628;10.850;2023-12-20T04:36:34;18.40;51.10
44863;DHT22;30597;49.628;10.850;2023-12-20T04:39:00;18.40;51.40
44863;DHT22;30597;49.628;10.850;2023-12-20T04:41:25;18.50;51.50
44863;DHT22;30597;49.628;10.850;2023-12-20T04:43:52;18.50;51.20
44863;DHT22;30597;49.628;10.850;2023-12-20T04:46:17;18.40;51.30
44863;DHT22;30597;49.628;10.850;2023-12-20T04:48:43;18.50;51.30
44863;DHT22;30597;49.628;10.850;2023-12-20T04:51:08;18.40;51.00
44863;DHT22;30597;49.628;10.850;2023-12-20T04:53:34;18.40;51.20
44863;DHT22;30597;49.628;10.850;2023-12-20T04:55:59;18.30;51.30
44863;DHT22;30597;49.628;10.850;2023-12-20T04:58:25;18.20;51.20
44863;DHT22;30597;49.628;10.850;2023-12-20T05:00:50;18.20;51.60
44863;DHT22;30597;49.628;10.850;2023-12-20T05:03:16;18.20;51.70
44863;DHT22;30597;49.628;10.850;2023-12-20T05:05:42;18.10;51.70
44863;DHT22;30597;49.628;10.850;2023-12-20T05:08:07;18.10;52.50
44863;DHT22;30597;49.628;10.850;2023-12-20T05:10:33;18.00;51.70
44863;DHT22;30597;49.628;10.850;2023-12-20T05:12:59;18.00;52.20
44863;DHT22;30597;49.628;10.850;2023-12-20T05:15:25;17.90;52.10
44863;DHT22;30597;49.628;10.850;2023-12-20T05:17:50;17.90;52.30
44863;DHT22;30597;49.628;10.850;2023-12-20T05:20:15;17.80;52.30
44863;DHT22;30597;49.628;10.850;2023-12-20T05:22:41;17.80;52.20
44863;DHT22;30597;49.628;10.850;2023-12-20T05:25:07;17.70;52.30
44863;DHT22;30597;49.628;10.850;2023-12-20T05:27:32;17.70;52.40
44863;DHT22;30597;49.628;10.850;2023-12-20T05:29:58;17.60;52.30
44863;DHT22;30597;49.628;10.850;2023-12-20T05:32:24;17.60;52.70
44863;DHT22;30597;49.628;10.850;2023-12-20T05:34:49;17.60;52.50
44863;DHT22;30597;49.628;10.850;2023-12-20T05:37:15;17.50;52.40
44863;DHT22;30597;49.628;10.850;2023-12-20T05:39:40;17.50;52.20
44863;DHT22;30597;49.628;10.850;2023-12-20T05:42:06;17.40;52.30
44863;DHT22;30597;49.628;10.850;2023-12-20T05:44:31;17.40;52.20
44863;DHT22;30597;49.628;10.850;2023-12-20T05:46:57;17.40;52.50
44863;DHT22;30597;49.628;10.850;2023-12-20T05:49:22;17.40;52.70
44863;DHT22;30597;49.628;10.850;2023-12-20T05:51:48;17.40;52.50
44863;DHT22;30597;49.628;10.850;2023-12-20T05:54:13;17.30;52.70
44863;DHT22;30597;49.628;10.850;2023-12-20T05:56:39;17.40;52.60
44863;DHT22;30597;49.628;10.850;2023-12-20T05:59:04;17.40;52.30
44863;DHT22;30597;49.628;10.850;2023-12-20T06:01:30;17.50;52.60
44863;DHT22;30597;49.628;10.850;2023-12-20T06:03:55;17.80;52.50
44863;DHT22;30597;49.628;10.850;2023-12-20T06:06:21;17.80;52.10
44863;DHT22;30597;49.628;10.850;2023-12-20T06:08:46;17.90;52.00
44863;DHT22;30597;49.628;10.850;2023-12-20T06:11:12;18.00;52.10
44863;DHT22;30597;49.628;10.850;2023-12-20T06:13:38;18.00;51.60
44863;DHT22;30597;49.628;10.850;2023-12-20T06:16:06;18.10;51.70
44863;DHT22;30597;49.628;10.850;2023-12-20T06:18:32;18.30;51.90
44863;DHT22;30597;49.628;10.850;2023-12-20T06:20:58;18.30;51.50
44863;DHT22;30597;49.628;10.850;2023-12-20T06:23:23;18.40;51.40
44863;DHT22;30597;49.628;10.850;2023-12-20T06:25:49;18.50;51.20
44863;DHT22;30597;49.628;10.850;2023-12-20T06:28:14;18.50;51.50
44863;DHT22;30597;49.628;10.850;2023-12-20T06:30:40;18.50;51.30
44863;DHT22;30597;49.628;10.850;2023-12-20T06:33:06;18.50;51.20
44863;DHT22;30597;49.628;10.850;2023-12-20T06:35:32;18.50;51.50
44863;DHT22;30597;49.628;10.850;2023-12-20T06:37:58;18.50;52.00
44863;DHT22;30597;49.628;10.850;2023-12-20T06:40:23;18.50;51.40
44863;DHT22;30597;49.628;10.850;2023-12-20T06:42:49;18.50;51.40
44863;DHT22;30597;49.628;10.850;2023-12-20T06:45:14;18.40;51.30
44863;DHT22;30597;49.628;10.850;2023-12-20T06:47:40;18.40;51.40
44863;DHT22;30597;49.628;10.850;2023-12-20T06:50:06;18.30;51.60
44863;DHT22;30597;49.628;10.850;2023-12-20T06:52:33;18.30;51.70
44863;DHT22;30597;49.628;10.850;2023-12-20T06:54:59;18.20;51.70
44863;DHT22;30597;49.628;10.850;2023-12-20T06:57:24;18.20;51.80
44863;DHT22;30597;49.628;10.850;2023-12-20T06:59:51;18.10;51.90
44863;DHT22;30597;49.628;10.850;2023-12-20T07:02:17;18.10;52.10
44863;DHT22;30597;49.628;10.850;2023-12-20T07:04:43;18.00;51.90
44863;DHT22;30597;49.628;10.850;2023-12-20T07:07:08;18.00;52.30
44863;DHT22;30597;49.628;10.850;2023-12-20T07:09:34;17.90;52.30
44863;DHT22;30597;49.628;10.850;2023-12-20T07:12:01;17.90;52.40
44863;DHT22;30597;49.628;10.850;2023-12-20T07:14:27;17.80;52.30
44863;DHT22;30597;49.628;10.850;2023-12-20T07:16:53;17.80;52.40
44863;DHT22;30597;49.628;10.850;2023-12-20T07:19:19;17.70;52.30
44863;DHT22;30597;49.628;10.850;2023-12-20T07:21:44;17.80;52.50
44863;DHT22;30597;49.628;10.850;2023-12-20T07:24:10;17.70;52.40
44863;DHT22;30597;49.628;10.850;2023-12-20T07:26:36;17.70;52.30
44863;DHT22;30597;49.628;10.850;2023-12-20T07:29:04;17.70;52.50
44863;DHT22;30597;49.628;10.850;2023-12-20T07:31:30;17.70;52.50
44863;DHT22;30597;49.628;10.850;2023-12-20T07:33:56;17.70;52.50
44863;DHT22;30597;49.628;10.850;2023-12-20T07:36:21;17.70;52.30
44863;DHT22;30597;49.628;10.850;2023-12-20T07:38:47;17.60;52.30
44863;DHT22;30597;49.628;10.850;2023-12-20T07:41:12;17.60;53.00
44863;DHT22;30597;49.628;10.850;2023-12-20T07:43:38;17.60;52.40
44863;DHT22;30597;49.628;10.850;2023-12-20T07:46:05;17.60;52.50
44863;DHT22;30597;49.628;10.850;2023-12-20T07:48:31;17.60;52.60
44863;DHT22;30597;49.628;10.850;2023-12-20T07:50:57;17.60;52.50
44863;DHT22;30597;49.628;10.850;2023-12-20T07:53:22;17.70;52.50
44863;DHT22;30597;49.628;10.850;2023-12-20T07:55:48;17.80;52.40
44863;DHT22;30597;49.628;10.850;2023-12-20T07:58:13;18.00;52.30
44863;DHT22;30597;49.628;10.850;2023-12-20T08:00:39;18.10;51.90
44863;DHT22;30597;49.628;10.850;2023-12-20T08:03:04;18.20;52.00
44863;DHT22;30597;49.628;10.850;2023-12-20T08:05:30;18.20;51.80
44863;DHT22;30597;49.628;10.850;2023-12-20T08:07:55;18.30;51.60
44863;DHT22;30597;49.628;10.850;2023-12-20T08:10:21;18.40;51.70
44863;DHT22;30597;49.628;10.850;2023-12-20T08:12:46;18.50;51.30
44863;DHT22;30597;49.628;10.850;2023-12-20T08:15:12;18.50;51.30
44863;DHT22;30597;49.628;10.850;2023-12-20T08:17:37;18.60;51.30
44863;DHT22;30597;49.628;10.850;2023-12-20T08:20:03;18.60;51.10
44863;DHT22;30597;49.628;10.850;2023-12-20T08:22:30;18.70;51.20
44863;DHT22;30597;49.628;10.850;2023-12-20T08:24:55;18.60;51.10
44863;DHT22;30597;49.628;10.850;2023-12-20T08:27:21;18.60;51.10
44863;DHT22;30597;49.628;10.850;2023-12-20T08:29:46;18.60;51.20
44863;DHT22;30597;49.628;10.850;2023-12-20T08:32:13;18.50;51.10
44863;DHT22;30597;49.628;10.850;2023-12-20T08:34:39;18.50;51.10
44863;DHT22;30597;49.628;10.850;2023-12-20T08:37:05;18.40;51.30
44863;DHT22;30597;49.628;10.850;2023-12-20T08:39:30;18.50;51.40
44863;DHT22;30597;49.628;10.850;2023-12-20T08:41:59;18.40;51.40
44863;DHT22;30597;49.628;10.850;2023-12-20T08:44:24;18.30;51.40
44863;DHT22;30597;49.628;10.850;2023-12-20T08:46:50;18.40;51.40
44863;DHT22;30597;49.628;10.850;2023-12-20T08:49:15;18.20;51.50
44863;DHT22;30597;49.628;10.850;2023-12-20T08:51:41;18.20;51.60
44863;DHT22;30597;49.628;10.850;2023-12-20T08:54:07;18.10;51.70
44863;DHT22;30597;49.628;10.850;2023-12-20T08:56:36;18.10;51.80
44863;DHT22;30597;49.628;10.850;2023-12-20T08:59:01;18.10;51.90
44863;DHT22;30597;49.628;10.850;2023-12-20T09:01:27;18.00;51.80
44863;DHT22;30597;49.628;10.850;2023-12-20T09:03:53;18.00;52.00
44863;DHT22;30597;49.628;10.850;2023-12-20T09:06:18;17.90;52.00
44863;DHT22;30597;49.628;10.850;2023-12-20T09:08:44;17.90;52.00
44863;DHT22;30597;49.628;10.850;2023-12-20T09:11:10;17.90;52.00
44863;DHT22;30597;49.628;10.850;2023-12-20T09:13:36;17.90;52.10
44863;DHT22;30597;49.628;10.850;2023-12-20T09:16:02;17.90;51.90
44863;DHT22;30597;49.628;10.850;2023-12-20T09:18:28;17.80;52.10
44863;DHT22;30597;49.628;10.850;2023-12-20T09:20:54;17.80;52.00
44863;DHT22;30597;49.628;10.850;2023-12-20T09:23:19;17.80;52.20
44863;DHT22;30597;49.628;10.850;2023-12-20T09:25:45;17.70;51.90
44863;DHT22;30597;49.628;10.850;2023-12-20T09:28:11;17.80;52.20
44863;DHT22;30597;49.628;10.850;2023-12-20T09:30:36;17.80;52.10
44863;DHT22;30597;49.628;10.850;2023-12-20T09:33:05;17.70;52.00
44863;DHT22;30597;49.628;10.850;2023-12-20T09:35:32;17.70;51.90
44863;DHT22;30597;49.628;10.850;2023-12-20T09:37:57;17.70;51.90
44863;DHT22;30597;49.628;10.850;2023-12-20T09:40:25;17.70;52.00
44863;DHT22;30597;49.628;10.850;2023-12-20T09:43:09;17.70;52.10
44863;DHT22;30597;49.628;10.850;2023-12-20T09:45:35;17.80;52.30
44863;DHT22;30597;49.628;10.850;2023-12-20T09:48:01;17.90;52.10
44863;DHT22;30597;49.628;10.850;2023-12-20T09:50:30;18.00;52.10
44863;DHT22;30597;49.628;10.850;2023-12-20T09:52:58;18.10;51.80
44863;DHT22;30597;49.628;10.850;2023-12-20T09:55:25;18.20;51.60
44863;DHT22;30597;49.628;10.850;2023-12-20T09:57:51;18.40;51.60
44863;DHT22;30597;49.628;10.850;2023-12-20T10:00:17;18.40;51.30
44863;DHT22;30597;49.628;10.850;2023-12-20T10:03:01;18.60;50.80
44863;DHT22;30597;49.628;10.850;2023-12-20T10:05:31;18.60;51.00
44863;DHT22;30597;49.628;10.850;2023-12-20T10:07:58;18.70;51.00
44863;DHT22;30597;49.628;10.850;2023-12-20T10:10:23;18.70;50.90
44863;DHT22;30597;49.628;10.850;2023-12-20T10:13:06;18.80;50.60
44863;DHT22;30597;49.628;10.850;2023-12-20T10:15:36;18.80;50.70
44863;DHT22;30597;49.628;10.850;2023-12-20T10:18:03;18.80;50.70
44863;DHT22;30597;49.628;10.850;2023-12-20T10:20:29;18.70;50.60
44863;DHT22;30597;49.628;10.850;2023-12-20T10:22:56;18.70;50.80
44863;DHT22;30597;49.628;10.850;2023-12-20T10:25:22;18.60;50.50
44863;DHT22;30597;49.628;10.850;2023-12-20T10:27:49;18.60;50.70
44863;DHT22;30597;49.628;10.850;2023-12-20T10:30:14;18.60;50.60
44863;DHT22;30597;49.628;10.850;2023-12-20T10:32:40;18.50;50.90
44863;DHT22;30597;49.628;10.850;2023-12-20T10:35:08;18.40;50.80
44863;DHT22;30597;49.628;10.850;2023-12-20T10:37:37;18.40;51.10
44863;DHT22;30597;49.628;10.850;2023-12-20T10:40:04;18.40;51.10
44863;DHT22;30597;49.628;10.850;2023-12-20T10:42:31;18.30;51.30
44863;DHT22;30597;49.628;10.850;2023-12-20T10:44:59;18.30;51.30
44863;DHT22;30597;49.628;10.850;2023-12-20T10:47:25;18.20;51.60
44863;DHT22;30597;49.628;10.850;2023-12-20T10:49:52;18.10;51.50
44863;DHT22;30597;49.628;10.850;2023-12-20T10:52:19;18.00;51.30
44863;DHT22;30597;49.628;10.850;2023-12-20T10:54:48;18.00;51.70
44863;DHT22;30597;49.628;10.850;2023-12-20T10:57:13;18.00;51.60
44863;DHT22;30597;49.628;10.850;2023-12-20T10:59:43;18.00;51.80
44863;DHT22;30597;49.628;10.850;2023-12-20T11:02:11;17.90;51.70
44863;DHT22;30597;49.628;10.850;2023-12-20T11:05:01;17.90;51.60
44863;DHT22;30597;49.628;10.850;2023-12-20T11:07:35;17.80;51.70
44863;DHT22;30597;49.628;10.850;2023-12-20T11:10:24;17.80;52.00
44863;DHT22;30597;49.628;10.850;2023-12-20T11:15:16;17.80;51.80
44863;DHT22;30597;49.628;10.850;2023-12-20T11:17:45;17.70;51.50
44863;DHT22;30597;49.628;10.850;2023-12-20T11:20:12;17.70;51.60
44863;DHT22;30597;49.628;10.850;2023-12-20T11:22:40;17.80;51.70
44863;DHT22;30597;49.628;10.850;2023-12-20T11:25:17;17.70;51.90
44863;DHT22;30597;49.628;10.850;2023-12-20T11:27:43;17.80;51.80
44863;DHT22;30597;49.628;10.850;2023-12-20T11:30:09;17.70;51.80
44863;DHT22;30597;49.628;10.850;2023-12-20T11:32:36;17.70;51.70
44863;DHT22;30597;49.628;10.850;2023-12-20T11:35:17;17.70;52.00
44863;DHT22;30597;49.628;10.850;2023-12-20T11:37:45;17.70;52.00
44863;DHT22;30597;49.628;10.850;2023-12-20T11:40:17;17.80;52.00
44863;DHT22;30597;49.628;10.850;2023-12-20T11:42:49;17.80;52.00
44863;DHT22;30597;49.628;10.850;2023-12-20T11:45:17;18.00;51.80
44863;DHT22;30597;49.628;10.850;2023-12-20T11:47:46;18.10;51.80
44863;DHT22;30597;49.628;10.850;2023-12-20T11:50:12;18.30;51.50
44863;DHT22;30597;49.628;10.850;2023-12-20T11:52:38;18.30;51.40
44863;DHT22;30597;49.628;10.850;2023-12-20T11:55:04;18.40;51.30
44863;DHT22;30597;49.628;10.850;2023-12-20T11:57:30;18.40;50.70
44863;DHT22;30597;49.628;10.850;2023-12-20T11:59:56;18.50;51.00
44863;DHT22;30597;49.628;10.850;2023-12-20T12:02:22;18.60;50.80
44863;DHT22;30597;49.628;10.850;2023-12-20T12:04:49;18.70;50.80
44863;DHT22;30597;49.628;10.850;2023-12-20T12:07:16;18.70;50.80
44863;DHT22;30597;49.628;10.850;2023-12-20T12:09:42;18.70;50.50
44863;DHT22;30597;49.628;10.850;2023-12-20T12:12:08;18.70;50.50
44863;DHT22;30597;49.628;10.850;2023-12-20T12:14:33;18.70;50.70
44863;DHT22;30597;49.628;10.850;2023-12-20T12:17:01;18.70;50.60
44863;DHT22;30597;49.628;10.850;2023-12-20T12:19:27;18.70;50.80
44863;DHT22;30597;49.628;10.850;2023-12-20T12:22:06;18.70;50.80
44863;DHT22;30597;49.628;10.850;2023-12-20T12:24:33;18.60;50.70
44863;DHT22;30597;49.628;10.850;2023-12-20T12:26:59;18.50;50.70
44863;DHT22;30597;49.628;10.850;2023-12-20T12:29:25;18.50;50.80
44863;DHT22;30597;49.628;10.850;2023-12-20T12:31:50;18.40;50.90
44863;DHT22;30597;49.628;10.850;2023-12-20T12:34:17;18.40;51.10
44863;DHT22;30597;49.628;10.850;2023-12-20T12:36:43;18.30;51.20
44863;DHT22;30597;49.628;10.850;2023-12-20T12:39:11;18.20;51.10
44863;DHT22;30597;49.628;10.850;2023-12-20T12:41:37;18.20;51.30
44863;DHT22;30597;49.628;10.850;2023-12-20T12:44:02;18.10;51.30
44863;DHT22;30597;49.628;10.850;2023-12-20T12:46:28;18.10;51.50
44863;DHT22;30597;49.628;10.850;2023-12-20T12:48:55;18.00;51.30
44863;DHT22;30597;49.628;10.850;2023-12-20T12:51:21;18.00;51.60
44863;DHT22;30597;49.628;10.850;2023-12-20T12:53:46;18.00;51.60
44863;DHT22;30597;49.628;10.850;2023-12-20T12:56:13;18.00;51.80
44863;DHT22;30597;49.628;10.850;2023-12-20T12:58:39;17.90;51.90
44863;DHT22;30597;49.628;10.850;2023-12-20T13:01:05;17.90;51.80
44863;DHT22;30597;49.628;10.850;2023-12-20T13:03:30;17.90;51.80
44863;DHT22;30597;49.628;10.850;2023-12-20T13:05:56;17.80;51.50
44863;DHT22;30597;49.628;10.850;2023-12-20T13:08:22;17.80;51.50
44863;DHT22;30597;49.628;10.850;2023-12-20T13:10:47;17.80;51.70
44863;DHT22;30597;49.628;10.850;2023-12-20T13:13:13;17.70;51.50
44863;DHT22;30597;49.628;10.850;2023-12-20T13:15:41;17.70;51.70
44863;DHT22;30597;49.628;10.850;2023-12-20T13:18:07;17.70;51.80
44863;DHT22;30597;49.628;10.850;2023-12-20T13:20:32;17.70;51.90
44863;DHT22;30597;49.628;10.850;2023-12-20T13:22:58;17.70;51.90
44863;DHT22;30597;49.628;10.850;2023-12-20T13:25:24;17.70;52.10
44863;DHT22;30597;49.628;10.850;2023-12-20T13:27:50;17.70;52.00
44863;DHT22;30597;49.628;10.850;2023-12-20T13:30:18;17.60;52.00
44863;DHT22;30597;49.628;10.850;2023-12-20T13:32:44;17.60;52.10
44863;DHT22;30597;49.628;10.850;2023-12-20T13:35:10;17.60;52.00
44863;DHT22;30597;49.628;10.850;2023-12-20T13:37:35;17.60;52.10
44863;DHT22;30597;49.628;10.850;2023-12-20T13:40:01;17.70;52.10
44863;DHT22;30597;49.628;10.850;2023-12-20T13:42:28;17.80;51.90
44863;DHT22;30597;49.628;10.850;2023-12-20T13:44:54;18.00;51.90
44863;DHT22;30597;49.628;10.850;2023-12-20T13:47:19;18.10;51.80
44863;DHT22;30597;49.628;10.850;2023-12-20T13:49:45;18.20;51.60
44863;DHT22;30597;49.628;10.850;2023-12-20T13:52:11;18.30;51.40
44863;DHT22;30597;49.628;10.850;2023-12-20T13:54:37;18.40;52.00
44863;DHT22;30597;49.628;10.850;2023-12-20T13:57:03;18.50;51.10
44863;DHT22;30597;49.628;10.850;2023-12-20T13:59:29;18.50;51.00
44863;DHT22;30597;49.628;10.850;2023-12-20T14:01:54;18.60;51.00
44863;DHT22;30597;49.628;10.850;2023-12-20T14:04:20;18.70;50.90
44863;DHT22;30597;49.628;10.850;2023-12-20T14:06:47;18.60;50.80
44863;DHT22;30597;49.628;10.850;2023-12-20T14:09:12;18.60;50.70
44863;DHT22;30597;49.628;10.850;2023-12-20T14:11:38;18.60;50.80
44863;DHT22;30597;49.628;10.850;2023-12-20T14:14:07;18.60;51.00
44863;DHT22;30597;49.628;10.850;2023-12-20T14:16:36;18.50;51.10
44863;DHT22;30597;49.628;10.850;2023-12-20T14:19:01;18.50;51.20
44863;DHT22;30597;49.628;10.850;2023-12-20T14:21:28;18.40;51.10
44863;DHT22;30597;49.628;10.850;2023-12-20T14:23:54;18.40;51.20
44863;DHT22;30597;49.628;10.850;2023-12-20T14:26:19;18.40;51.10
44863;DHT22;30597;49.628;10.850;2023-12-20T14:28:45;18.30;51.30
44863;DHT22;30597;49.628;10.850;2023-12-20T14:31:11;18.30;51.30
44863;DHT22;30597;49.628;10.850;2023-12-20T14:33:37;18.20;51.50
44863;DHT22;30597;49.628;10.850;2023-12-20T14:36:05;18.20;51.50
44863;DHT22;30597;49.628;10.850;2023-12-20T14:38:34;18.10;51.40
44863;DHT22;30597;49.628;10.850;2023-12-20T14:41:00;18.00;51.50
44863;DHT22;30597;49.628;10.850;2023-12-20T14:43:26;18.00;51.70
44863;DHT22;30597;49.628;10.850;2023-12-20T14:45:55;18.00;51.80
44863;DHT22;30597;49.628;10.850;2023-12-20T14:48:20;18.00;51.90
44863;DHT22;30597;49.628;10.850;2023-12-20T14:50:46;17.90;51.80
44863;DHT22;30597;49.628;10.850;2023-12-20T14:53:14;17.90;52.50
44863;DHT22;30597;49.628;10.850;2023-12-20T14:55:42;17.80;51.80
44863;DHT22;30597;49.628;10.850;2023-12-20T14:58:07;17.80;51.90
44863;DHT22;30597;49.628;10.850;2023-12-20T15:00:33;17.80;52.00
44863;DHT22;30597;49.628;10.850;2023-12-20T15:02:59;17.80;51.90
44863;DHT22;30597;49.628;10.850;2023-12-20T15:05:25;17.80;51.90
44863;DHT22;30597;49.628;10.850;2023-12-20T15:07:52;17.80;52.10
44863;DHT22;30597;49.628;10.850;2023-12-20T15:10:18;17.70;52.00
44863;DHT22;30597;49.628;10.850;2023-12-20T15:12:44;17.70;52.70